sensor_id;sensor_type;location;lat;lon;timestamp;temperature;humidity
3866;DHT22;1948;53.250;10.412;2022-11-15T00:01:18;7.30;99.90
3866;DHT22;1948;53.250;10.412;2022-11-15T00:03:50;7.30;99.90
3866;DHT22;1948;53.250;10.412;2022-11-15T00:06:18;7.40;99.90
3866;DHT22;1948;53.250;10.412;2022-11-15T00:08:45;7.40;99.90
3866;DHT22;1948;53.250;10.412;2022-11-15T00:11:12;7.30;99.90
3866;DHT22;1948;53.250;10.412;2022-11-15T00:13:41;7.30;99.90
3866;DHT22;1948;53.250;10.412;2022-11-15T00:16:09;7.40;99.90
3866;DHT22;1948;53.250;10.412;2022-11-15T00:18:38;7.40;99.90
3866;DHT22;1948;53.250;10.412;2022-11-15T00:21:17;7.40;99.90
3866;DHT22;1948;53.250;10.412;2022-11-15T00:23:47;7.40;99.90
3866;DHT22;1948;53.250;10.412;2022-11-15T00:26:14;7.50;99.90
3866;DHT22;1948;53.250;10.412;2022-11-15T00:28:42;7.40;99.90
3866;DHT22;1948;53.250;10.412;2022-11-15T00:31:12;7.40;99.90
3866;DHT22;1948;53.250;10.412;2022-11-15T00:33:43;7.40;99.90
3866;DHT22;1948;53.250;10.412;2022-11-15T00:36:11;7.50;99.90
3866;DHT22;1948;53.250;10.412;2022-11-15T00:38:41;7.50;99.90
3866;DHT22;1948;53.250;10.412;2022-11-15T00:41:13;7.50;99.90
3866;DHT22;1948;53.250;10.412;2022-11-15T00:43:40;7.40;99.90
3866;DHT22;1948;53.250;10.412;2022-11-15T00:46:10;7.40;99.90
3866;DHT22;1948;53.250;10.412;2022-11-15T00:48:37;7.40;99.90
3866;DHT22;1948;53.250;10.412;2022-11-15T00:51:04;7.40;99.90
3866;DHT22;1948;53.250;10.412;2022-11-15T00:53:31;7.30;99.90
3866;DHT22;1948;53.250;10.412;2022-11-15T00:55:59;7.30;99.90
3866;DHT22;1948;53.250;10.412;2022-11-15T00:58:25;7.30;99.90
3866;DHT22;1948;53.250;10.412;2022-11-15T01:00:53;7.30;99.90
3866;DHT22;1948;53.250;10.412;2022-11-15T01:03:22;7.30;99.90
3866;DHT22;1948;53.250;10.412;2022-11-15T01:05:56;7.30;99.90
3866;DHT22;1948;53.250;10.412;2022-11-15T01:08:25;7.30;99.90
3866;DHT22;1948;53.250;10.412;2022-11-15T01:10:52;7.20;99.90
3866;DHT22;1948;53.250;10.412;2022-11-15T01:13:21;7.10;99.90
3866;DHT22;1948;53.250;10.412;2022-11-15T01:15:48;7.10;99.90
3866;DHT22;1948;53.250;10.412;2022-11-15T01:18:17;7.10;99.90
3866;DHT22;1948;53.250;10.412;2022-11-15T01:20:44;7.10;99.90
3866;DHT22;1948;53.250;10.412;2022-11-15T01:23:11;7.10;99.90
3866;DHT22;1948;53.250;10.412;2022-11-15T01:25:41;7.00;99.90
3866;DHT22;1948;53.250;10.412;2022-11-15T01:28:08;7.00;99.90
3866;DHT22;1948;53.250;10.412;2022-11-15T01:30:37;7.00;99.90
3866;DHT22;1948;53.250;10.412;2022-11-15T01:33:07;7.00;99.90
3866;DHT22;1948;53.250;10.412;2022-11-15T01:35:38;7.00;99.90
3866;DHT22;1948;53.250;10.412;2022-11-15T01:38:06;7.00;99.90
3866;DHT22;1948;53.250;10.412;2022-11-15T01:40:33;6.90;99.90
3866;DHT22;1948;53.250;10.412;2022-11-15T01:43:28;6.80;99.90
3866;DHT22;1948;53.250;10.412;2022-11-15T01:49:09;6.90;99.90
3866;DHT22;1948;53.250;10.412;2022-11-15T01:51:39;6.90;99.90
3866;DHT22;1948;53.250;10.412;2022-11-15T01:54:09;6.90;99.90
3866;DHT22;1948;53.250;10.412;2022-11-15T01:56:47;6.90;99.90
3866;DHT22;1948;53.250;10.412;2022-11-15T01:59:18;6.90;99.90
3866;DHT22;1948;53.250;10.412;2022-11-15T02:01:45;7.00;99.90
3866;DHT22;1948;53.250;10.412;2022-11-15T02:04:24;7.00;99.90
3866;DHT22;1948;53.250;10.412;2022-11-15T02:06:54;7.00;99.90
3866;DHT22;1948;53.250;10.412;2022-11-15T02:09:21;7.00;99.90
3866;DHT22;1948;53.250;10.412;2022-11-15T02:11:53;7.00;99.90
3866;DHT22;1948;53.250;10.412;2022-11-15T02:14:23;7.00;99.90
3866;DHT22;1948;53.250;10.412;2022-11-15T02:25:47;7.00;99.90
3866;DHT22;1948;53.250;10.412;2022-11-15T02:40:29;6.80;99.90
3866;DHT22;1948;53.250;10.412;2022-11-15T02:43:28;6.80;99.90
3866;DHT22;1948;53.250;10.412;2022-11-15T02:46:41;6.70;99.90
3866;DHT22;1948;53.250;10.412;2022-11-15T02:49:34;6.70;99.90
3866;DHT22;1948;53.250;10.412;2022-11-15T02:52:02;6.70;99.90
3866;DHT22;1948;53.250;10.412;2022-11-15T02:54:31;6.60;99.90
3866;DHT22;1948;53.250;10.412;2022-11-15T02:57:04;6.60;99.90
3866;DHT22;1948;53.250;10.412;2022-11-15T03:16:34;6.50;99.90
3866;DHT22;1948;53.250;10.412;2022-11-15T03:19:06;6.60;99.90
3866;DHT22;1948;53.250;10.412;2022-11-15T03:21:34;6.60;99.90
3866;DHT22;1948;53.250;10.412;2022-11-15T03:24:04;6.60;99.90
3866;DHT22;1948;53.250;10.412;2022-11-15T03:26:35;6.60;99.90
3866;DHT22;1948;53.250;10.412;2022-11-15T03:29:08;6.70;99.90
3866;DHT22;1948;53.250;10.412;2022-11-15T03:32:03;6.70;99.90
3866;DHT22;1948;53.250;10.412;2022-11-15T03:37:15;6.70;99.90
3866;DHT22;1948;53.250;10.412;2022-11-15T03:39:43;6.80;99.90
3866;DHT22;1948;53.250;10.412;2022-11-15T03:48:16;6.90;99.90
3866;DHT22;1948;53.250;10.412;2022-11-15T03:50:46;6.90;99.90
3866;DHT22;1948;53.250;10.412;2022-11-15T03:53:16;6.90;99.90
3866;DHT22;1948;53.250;10.412;2022-11-15T03:55:46;7.00;99.90
3866;DHT22;1948;53.250;10.412;2022-11-15T03:58:15;7.00;99.90
3866;DHT22;1948;53.250;10.412;2022-11-15T04:00:42;7.00;99.90
3866;DHT22;1948;53.250;10.412;2022-11-15T04:03:11;7.00;99.90
3866;DHT22;1948;53.250;10.412;2022-11-15T04:05:40;7.00;99.90
3866;DHT22;1948;53.250;10.412;2022-11-15T04:08:07;7.10;99.90
3866;DHT22;1948;53.250;10.412;2022-11-15T04:10:34;7.10;99.90
3866;DHT22;1948;53.250;10.412;2022-11-15T04:13:03;7.20;99.90
3866;DHT22;1948;53.250;10.412;2022-11-15T04:15:33;7.20;99.90
3866;DHT22;1948;53.250;10.412;2022-11-15T04:18:02;7.30;99.90
3866;DHT22;1948;53.250;10.412;2022-11-15T04:20:32;7.30;99.90
3866;DHT22;1948;53.250;10.412;2022-11-15T04:23:22;7.30;99.90
3866;DHT22;1948;53.250;10.412;2022-11-15T04:26:10;7.40;99.90
3866;DHT22;1948;53.250;10.412;2022-11-15T04:28:38;7.50;99.90
3866;DHT22;1948;53.250;10.412;2022-11-15T04:31:29;7.60;99.90
3866;DHT22;1948;53.250;10.412;2022-11-15T04:33:56;7.50;99.90
3866;DHT22;1948;53.250;10.412;2022-11-15T04:36:24;7.50;99.90
3866;DHT22;1948;53.250;10.412;2022-11-15T04:39:11;7.50;99.90
3866;DHT22;1948;53.250;10.412;2022-11-15T04:41:38;7.40;99.90
3866;DHT22;1948;53.250;10.412;2022-11-15T04:44:08;7.40;99.90
3866;DHT22;1948;53.250;10.412;2022-11-15T04:46:36;7.40;99.90
3866;DHT22;1948;53.250;10.412;2022-11-15T04:49:04;7.40;99.90
3866;DHT22;1948;53.250;10.412;2022-11-15T04:51:34;7.40;99.90
3866;DHT22;1948;53.250;10.412;2022-11-15T04:54:01;7.40;99.90
3866;DHT22;1948;53.250;10.412;2022-11-15T04:56:28;7.40;99.90
3866;DHT22;1948;53.250;10.412;2022-11-15T04:58:57;7.30;99.90
3866;DHT22;1948;53.250;10.412;2022-11-15T05:01:27;7.20;99.90
3866;DHT22;1948;53.250;10.412;2022-11-15T05:03:54;7.20;99.90
3866;DHT22;1948;53.250;10.412;2022-11-15T05:06:42;7.20;99.90
3866;DHT22;1948;53.250;10.412;2022-11-15T05:09:09;7.10;99.90
3866;DHT22;1948;53.250;10.412;2022-11-15T05:11:36;7.20;99.90
3866;DHT22;1948;53.250;10.412;2022-11-15T05:14:05;7.20;99.90
3866;DHT22;1948;53.250;10.412;2022-11-15T05:16:32;7.20;99.90
3866;DHT22;1948;53.250;10.412;2022-11-15T05:19:04;7.00;99.90
3866;DHT22;1948;53.250;10.412;2022-11-15T05:21:32;7.10;99.90
3866;DHT22;1948;53.250;10.412;2022-11-15T05:23:59;7.10;99.90
3866;DHT22;1948;53.250;10.412;2022-11-15T05:26:32;7.20;99.90
3866;DHT22;1948;53.250;10.412;2022-11-15T05:28:59;7.20;99.90
3866;DHT22;1948;53.250;10.412;2022-11-15T05:31:27;7.10;99.90
3866;DHT22;1948;53.250;10.412;2022-11-15T05:33:57;7.30;99.90
3866;DHT22;1948;53.250;10.412;2022-11-15T05:36:40;7.20;99.90
3866;DHT22;1948;53.250;10.412;2022-11-15T05:39:09;7.20;99.90
3866;DHT22;1948;53.250;10.412;2022-11-15T05:42:14;7.30;99.90
3866;DHT22;1948;53.250;10.412;2022-11-15T05:44:46;7.30;99.90
3866;DHT22;1948;53.250;10.412;2022-11-15T05:47:21;7.30;99.90
3866;DHT22;1948;53.250;10.412;2022-11-15T05:49:55;7.40;99.90
3866;DHT22;1948;53.250;10.412;2022-11-15T05:52:27;7.40;99.90
3866;DHT22;1948;53.250;10.412;2022-11-15T05:54:57;7.30;99.90
3866;DHT22;1948;53.250;10.412;2022-11-15T05:57:26;7.30;99.90
3866;DHT22;1948;53.250;10.412;2022-11-15T05:59:56;7.30;99.90
3866;DHT22;1948;53.250;10.412;2022-11-15T06:02:23;7.40;99.90
3866;DHT22;1948;53.250;10.412;2022-11-15T06:04:53;7.40;99.90
3866;DHT22;1948;53.250;10.412;2022-11-15T06:07:20;7.40;99.90
3866;DHT22;1948;53.250;10.412;2022-11-15T06:09:46;7.40;99.90
3866;DHT22;1948;53.250;10.412;2022-11-15T06:12:13;7.50;99.90
3866;DHT22;1948;53.250;10.412;2022-11-15T06:14:43;7.50;99.90
3866;DHT22;1948;53.250;10.412;2022-11-15T06:17:12;7.50;99.90
3866;DHT22;1948;53.250;10.412;2022-11-15T06:19:39;7.50;99.90
3866;DHT22;1948;53.250;10.412;2022-11-15T06:22:06;7.50;99.90
3866;DHT22;1948;53.250;10.412;2022-11-15T06:24:33;7.60;99.90
3866;DHT22;1948;53.250;10.412;2022-11-15T06:27:04;7.60;99.90
3866;DHT22;1948;53.250;10.412;2022-11-15T06:29:36;7.60;99.90
3866;DHT22;1948;53.250;10.412;2022-11-15T06:32:03;7.60;99.90
3866;DHT22;1948;53.250;10.412;2022-11-15T06:34:33;7.60;99.90
3866;DHT22;1948;53.250;10.412;2022-11-15T06:37:05;7.60;99.90
3866;DHT22;1948;53.250;10.412;2022-11-15T06:39:37;7.70;99.90
3866;DHT22;1948;53.250;10.412;2022-11-15T06:42:04;7.70;99.90
3866;DHT22;1948;53.250;10.412;2022-11-15T06:44:33;7.70;99.90
3866;DHT22;1948;53.250;10.412;2022-11-15T06:47:00;7.70;99.90
3866;DHT22;1948;53.250;10.412;2022-11-15T06:49:27;7.70;99.90
3866;DHT22;1948;53.250;10.412;2022-11-15T06:51:58;7.70;99.90
3866;DHT22;1948;53.250;10.412;2022-11-15T06:54:27;7.70;99.90
3866;DHT22;1948;53.250;10.412;2022-11-15T06:56:54;7.70;99.90
3866;DHT22;1948;53.250;10.412;2022-11-15T06:59:24;7.80;99.90
3866;DHT22;1948;53.250;10.412;2022-11-15T07:01:51;7.80;99.90
3866;DHT22;1948;53.250;10.412;2022-11-15T07:04:20;7.80;99.90
3866;DHT22;1948;53.250;10.412;2022-11-15T07:06:53;7.90;99.90
3866;DHT22;1948;53.250;10.412;2022-11-15T07:09:20;8.00;99.90
3866;DHT22;1948;53.250;10.412;2022-11-15T07:11:46;8.00;99.90
3866;DHT22;1948;53.250;10.412;2022-11-15T07:14:16;8.00;99.90
3866;DHT22;1948;53.250;10.412;2022-11-15T07:16:43;8.10;99.90
3866;DHT22;1948;53.250;10.412;2022-11-15T07:19:09;8.20;99.90
3866;DHT22;1948;53.250;10.412;2022-11-15T07:21:36;8.20;99.90
3866;DHT22;1948;53.250;10.412;2022-11-15T07:24:06;8.40;99.90
3866;DHT22;1948;53.250;10.412;2022-11-15T07:26:33;8.70;99.90
3866;DHT22;1948;53.250;10.412;2022-11-15T07:29:00;9.10;99.90
3866;DHT22;1948;53.250;10.412;2022-11-15T07:31:27;9.50;99.90
3866;DHT22;1948;53.250;10.412;2022-11-15T07:33:54;9.70;99.90
3866;DHT22;1948;53.250;10.412;2022-11-15T07:36:24;10.40;99.90
3866;DHT22;1948;53.250;10.412;2022-11-15T07:38:53;10.90;99.90
3866;DHT22;1948;53.250;10.412;2022-11-15T07:41:19;11.40;99.90
3866;DHT22;1948;53.250;10.412;2022-11-15T07:43:51;11.80;99.90
3866;DHT22;1948;53.250;10.412;2022-11-15T07:46:20;12.50;99.90
3866;DHT22;1948;53.250;10.412;2022-11-15T07:48:47;12.80;99.90
3866;DHT22;1948;53.250;10.412;2022-11-15T07:51:17;13.10;99.90
3866;DHT22;1948;53.250;10.412;2022-11-15T07:53:49;13.40;99.90
3866;DHT22;1948;53.250;10.412;2022-11-15T07:56:20;13.70;99.90
3866;DHT22;1948;53.250;10.412;2022-11-15T07:58:47;13.90;99.90
3866;DHT22;1948;53.250;10.412;2022-11-15T08:01:14;14.30;99.90
3866;DHT22;1948;53.250;10.412;2022-11-15T08:03:44;14.60;99.90
3866;DHT22;1948;53.250;10.412;2022-11-15T08:06:10;14.90;99.90
3866;DHT22;1948;53.250;10.412;2022-11-15T08:08:37;15.30;99.90
3866;DHT22;1948;53.250;10.412;2022-11-15T08:11:04;15.90;99.90
3866;DHT22;1948;53.250;10.412;2022-11-15T08:13:33;16.00;99.90
3866;DHT22;1948;53.250;10.412;2022-11-15T08:16:03;15.80;99.90
3866;DHT22;1948;53.250;10.412;2022-11-15T08:18:32;16.00;99.90
3866;DHT22;1948;53.250;10.412;2022-11-15T08:21:00;16.20;99.90
3866;DHT22;1948;53.250;10.412;2022-11-15T08:23:27;16.30;99.90
3866;DHT22;1948;53.250;10.412;2022-11-15T08:26:04;16.60;99.90
3866;DHT22;1948;53.250;10.412;2022-11-15T08:28:33;16.90;99.90
3866;DHT22;1948;53.250;10.412;2022-11-15T08:31:03;17.80;99.90
3866;DHT22;1948;53.250;10.412;2022-11-15T08:33:31;18.00;99.90
3866;DHT22;1948;53.250;10.412;2022-11-15T08:36:00;17.40;99.90
3866;DHT22;1948;53.250;10.412;2022-11-15T08:38:27;17.20;99.90
3866;DHT22;1948;53.250;10.412;2022-11-15T08:41:04;17.00;99.90
3866;DHT22;1948;53.250;10.412;2022-11-15T08:43:33;17.10;99.90
3866;DHT22;1948;53.250;10.412;2022-11-15T08:46:00;16.90;99.90
3866;DHT22;1948;53.250;10.412;2022-11-15T08:48:27;16.80;99.90
3866;DHT22;1948;53.250;10.412;2022-11-15T08:50:55;16.70;99.90
3866;DHT22;1948;53.250;10.412;2022-11-15T08:53:25;16.40;99.90
3866;DHT22;1948;53.250;10.412;2022-11-15T08:55:52;16.00;99.90
3866;DHT22;1948;53.250;10.412;2022-11-15T08:58:19;16.10;99.90
3866;DHT22;1948;53.250;10.412;2022-11-15T09:00:46;16.40;99.90
3866;DHT22;1948;53.250;10.412;2022-11-15T09:03:15;16.20;99.90
3866;DHT22;1948;53.250;10.412;2022-11-15T09:05:44;15.80;99.90
3866;DHT22;1948;53.250;10.412;2022-11-15T09:08:17;15.50;99.90
3866;DHT22;1948;53.250;10.412;2022-11-15T09:11:06;14.70;99.90
3866;DHT22;1948;53.250;10.412;2022-11-15T09:13:37;13.60;99.90
3866;DHT22;1948;53.250;10.412;2022-11-15T09:16:06;13.30;99.90
3866;DHT22;1948;53.250;10.412;2022-11-15T09:18:34;13.10;99.90
3866;DHT22;1948;53.250;10.412;2022-11-15T09:21:01;12.90;99.90
3866;DHT22;1948;53.250;10.412;2022-11-15T09:23:29;12.70;99.90
3866;DHT22;1948;53.250;10.412;2022-11-15T09:26:03;12.60;99.90
3866;DHT22;1948;53.250;10.412;2022-11-15T09:28:36;12.70;99.90
3866;DHT22;1948;53.250;10.412;2022-11-15T09:31:05;12.80;99.90
3866;DHT22;1948;53.250;10.412;2022-11-15T09:33:32;13.00;99.90
3866;DHT22;1948;53.250;10.412;2022-11-15T09:36:05;13.20;99.90
3866;DHT22;1948;53.250;10.412;2022-11-15T09:38:41;13.40;99.90
3866;DHT22;1948;53.250;10.412;2022-11-15T09:44:07;14.50;99.90
3866;DHT22;1948;53.250;10.412;2022-11-15T09:47:27;15.60;99.90
3866;DHT22;1948;53.250;10.412;2022-11-15T09:49:58;16.40;99.90
3866;DHT22;1948;53.250;10.412;2022-11-15T09:52:26;16.30;99.90
3866;DHT22;1948;53.250;10.412;2022-11-15T09:54:54;15.90;99.90
3866;DHT22;1948;53.250;10.412;2022-11-15T10:00:22;15.00;99.90
3866;DHT22;1948;53.250;10.412;2022-11-15T10:03:33;14.80;99.90
3866;DHT22;1948;53.250;10.412;2022-11-15T10:06:04;14.70;99.90
3866;DHT22;1948;53.250;10.412;2022-11-15T10:11:26;14.60;99.90
3866;DHT22;1948;53.250;10.412;2022-11-15T10:14:19;14.60;99.90
3866;DHT22;1948;53.250;10.412;2022-11-15T10:25:18;14.10;99.90
3866;DHT22;1948;53.250;10.412;2022-11-15T10:27:57;14.10;99.90
3866;DHT22;1948;53.250;10.412;2022-11-15T10:30:36;14.10;99.90
3866;DHT22;1948;53.250;10.412;2022-11-15T10:35:47;13.70;99.90
3866;DHT22;1948;53.250;10.412;2022-11-15T10:38:17;13.70;99.90
3866;DHT22;1948;53.250;10.412;2022-11-15T10:40:46;13.70;99.90
3866;DHT22;1948;53.250;10.412;2022-11-15T10:43:19;13.70;99.90
3866;DHT22;1948;53.250;10.412;2022-11-15T10:45:46;13.80;99.90
3866;DHT22;1948;53.250;10.412;2022-11-15T10:48:20;14.00;99.90
3866;DHT22;1948;53.250;10.412;2022-11-15T10:50:49;14.10;99.90
3866;DHT22;1948;53.250;10.412;2022-11-15T10:53:31;14.20;99.90
3866;DHT22;1948;53.250;10.412;2022-11-15T10:56:07;15.20;99.90
3866;DHT22;1948;53.250;10.412;2022-11-15T10:58:50;17.40;99.90
3866;DHT22;1948;53.250;10.412;2022-11-15T11:01:24;18.60;99.90
3866;DHT22;1948;53.250;10.412;2022-11-15T11:04:03;18.40;99.90
3866;DHT22;1948;53.250;10.412;2022-11-15T11:07:08;17.90;99.90
3866;DHT22;1948;53.250;10.412;2022-11-15T11:09:38;17.30;99.90
3866;DHT22;1948;53.250;10.412;2022-11-15T11:12:14;17.00;99.90
3866;DHT22;1948;53.250;10.412;2022-11-15T11:14:54;16.40;99.90
3866;DHT22;1948;53.250;10.412;2022-11-15T11:18:01;16.10;99.90
3866;DHT22;1948;53.250;10.412;2022-11-15T11:26:40;14.80;99.90
3866;DHT22;1948;53.250;10.412;2022-11-15T11:42:09;15.10;99.90
3866;DHT22;1948;53.250;10.412;2022-11-15T11:45:10;15.40;99.90
3866;DHT22;1948;53.250;10.412;2022-11-15T11:47:47;16.20;99.90
3866;DHT22;1948;53.250;10.412;2022-11-15T11:50:24;17.10;99.90
3866;DHT22;1948;53.250;10.412;2022-11-15T11:55:37;17.90;99.90
3866;DHT22;1948;53.250;10.412;2022-11-15T11:58:35;17.80;99.90
3866;DHT22;1948;53.250;10.412;2022-11-15T12:01:43;18.00;99.90
3866;DHT22;1948;53.250;10.412;2022-11-15T12:04:36;18.20;99.90
3866;DHT22;1948;53.250;10.412;2022-11-15T12:07:19;18.10;99.90
3866;DHT22;1948;53.250;10.412;2022-11-15T12:13:09;18.00;99.90
3866;DHT22;1948;53.250;10.412;2022-11-15T12:15:47;17.70;99.90
3866;DHT22;1948;53.250;10.412;2022-11-15T12:18:34;17.80;99.90
3866;DHT22;1948;53.250;10.412;2022-11-15T12:21:08;17.80;99.90
3866;DHT22;1948;53.250;10.412;2022-11-15T12:23:48;17.90;99.90
3866;DHT22;1948;53.250;10.412;2022-11-15T12:26:24;18.10;99.90
3866;DHT22;1948;53.250;10.412;2022-11-15T12:29:00;17.80;99.90
3866;DHT22;1948;53.250;10.412;2022-11-15T12:36:51;16.90;99.90
3866;DHT22;1948;53.250;10.412;2022-11-15T12:39:21;16.70;99.90
3866;DHT22;1948;53.250;10.412;2022-11-15T12:42:39;16.30;99.90
3866;DHT22;1948;53.250;10.412;2022-11-15T12:45:27;16.00;99.90
3866;DHT22;1948;53.250;10.412;2022-11-15T12:58:58;15.70;99.90
3866;DHT22;1948;53.250;10.412;2022-11-15T13:07:02;16.10;99.90
3866;DHT22;1948;53.250;10.412;2022-11-15T13:17:52;16.30;99.90
3866;DHT22;1948;53.250;10.412;2022-11-15T13:20:31;16.30;99.90
3866;DHT22;1948;53.250;10.412;2022-11-15T13:31:34;15.60;99.90
3866;DHT22;1948;53.250;10.412;2022-11-15T13:39:48;15.00;99.90
3866;DHT22;1948;53.250;10.412;2022-11-15T13:42:24;14.90;99.90
3866;DHT22;1948;53.250;10.412;2022-11-15T13:45:00;14.80;99.90
3866;DHT22;1948;53.250;10.412;2022-11-15T13:47:29;14.60;99.90
3866;DHT22;1948;53.250;10.412;2022-11-15T13:49:58;14.60;99.90
3866;DHT22;1948;53.250;10.412;2022-11-15T13:52:33;14.40;99.90
3866;DHT22;1948;53.250;10.412;2022-11-15T13:55:13;14.40;99.90
3866;DHT22;1948;53.250;10.412;2022-11-15T13:57:50;14.40;99.90
3866;DHT22;1948;53.250;10.412;2022-11-15T14:03:26;14.30;99.90
3866;DHT22;1948;53.250;10.412;2022-11-15T14:06:15;14.30;99.90
3866;DHT22;1948;53.250;10.412;2022-11-15T14:11:51;14.00;99.90
3866;DHT22;1948;53.250;10.412;2022-11-15T14:14:21;14.10;99.90
3866;DHT22;1948;53.250;10.412;2022-11-15T14:16:52;14.10;99.90
3866;DHT22;1948;53.250;10.412;2022-11-15T14:27:42;16.80;99.90
3866;DHT22;1948;53.250;10.412;2022-11-15T14:30:18;16.40;99.90
3866;DHT22;1948;53.250;10.412;2022-11-15T14:32:51;15.90;99.90
3866;DHT22;1948;53.250;10.412;2022-11-15T14:35:22;15.80;99.90
3866;DHT22;1948;53.250;10.412;2022-11-15T14:37:50;16.30;99.90
3866;DHT22;1948;53.250;10.412;2022-11-15T14:40:21;16.70;99.90
3866;DHT22;1948;53.250;10.412;2022-11-15T14:42:51;16.90;99.90
3866;DHT22;1948;53.250;10.412;2022-11-15T14:45:21;17.20;99.90
3866;DHT22;1948;53.250;10.412;2022-11-15T14:47:55;17.30;99.90
3866;DHT22;1948;53.250;10.412;2022-11-15T14:50:25;16.90;99.90
3866;DHT22;1948;53.250;10.412;2022-11-15T14:52:54;16.50;99.90
3866;DHT22;1948;53.250;10.412;2022-11-15T14:57:55;15.70;99.90
3866;DHT22;1948;53.250;10.412;2022-11-15T15:00:22;15.30;99.90
3866;DHT22;1948;53.250;10.412;2022-11-15T15:02:53;15.00;99.90
3866;DHT22;1948;53.250;10.412;2022-11-15T15:05:24;14.90;99.90
3866;DHT22;1948;53.250;10.412;2022-11-15T15:07:52;14.80;99.90
3866;DHT22;1948;53.250;10.412;2022-11-15T15:10:22;14.70;99.90
3866;DHT22;1948;53.250;10.412;2022-11-15T15:13:18;14.50;99.90
3866;DHT22;1948;53.250;10.412;2022-11-15T15:15:50;14.20;99.90
3866;DHT22;1948;53.250;10.412;2022-11-15T15:18:18;14.10;99.90
3866;DHT22;1948;53.250;10.412;2022-11-15T15:20:55;13.90;99.90
3866;DHT22;1948;53.250;10.412;2022-11-15T15:23:25;13.70;99.90
3866;DHT22;1948;53.250;10.412;2022-11-15T15:25:59;13.50;99.90
3866;DHT22;1948;53.250;10.412;2022-11-15T15:28:32;13.40;99.90
3866;DHT22;1948;53.250;10.412;2022-11-15T15:31:05;13.30;99.90
3866;DHT22;1948;53.250;10.412;2022-11-15T15:33:35;13.20;99.90
3866;DHT22;1948;53.250;10.412;2022-11-15T15:36:16;13.10;99.90
3866;DHT22;1948;53.250;10.412;2022-11-15T15:38:57;13.00;99.90
3866;DHT22;1948;53.250;10.412;2022-11-15T15:41:36;12.90;99.90
3866;DHT22;1948;53.250;10.412;2022-11-15T15:44:03;12.80;99.90
3866;DHT22;1948;53.250;10.412;2022-11-15T15:46:34;12.70;99.90
3866;DHT22;1948;53.250;10.412;2022-11-15T15:49:02;12.70;99.90
3866;DHT22;1948;53.250;10.412;2022-11-15T15:51:35;12.70;99.90
3866;DHT22;1948;53.250;10.412;2022-11-15T15:54:07;12.70;99.90
3866;DHT22;1948;53.250;10.412;2022-11-15T15:56:38;12.60;99.90
3866;DHT22;1948;53.250;10.412;2022-11-15T15:59:15;12.50;99.90
3866;DHT22;1948;53.250;10.412;2022-11-15T16:01:45;12.40;99.90
3866;DHT22;1948;53.250;10.412;2022-11-15T16:04:17;12.40;99.90
3866;DHT22;1948;53.250;10.412;2022-11-15T16:06:45;12.30;99.90
3866;DHT22;1948;53.250;10.412;2022-11-15T16:09:22;12.30;99.90
3866;DHT22;1948;53.250;10.412;2022-11-15T16:12:09;12.40;99.90
3866;DHT22;1948;53.250;10.412;2022-11-15T16:14:38;12.40;99.90
3866;DHT22;1948;53.250;10.412;2022-11-15T16:17:05;12.50;99.90
3866;DHT22;1948;53.250;10.412;2022-11-15T16:19:35;12.40;99.90
3866;DHT22;1948;53.250;10.412;2022-11-15T16:22:02;12.40;99.90
3866;DHT22;1948;53.250;10.412;2022-11-15T16:24:29;12.50;99.90
3866;DHT22;1948;53.250;10.412;2022-11-15T16:26:58;12.50;99.90
3866;DHT22;1948;53.250;10.412;2022-11-15T16:29:27;12.50;99.90
3866;DHT22;1948;53.250;10.412;2022-11-15T16:31:57;12.50;99.90
3866;DHT22;1948;53.250;10.412;2022-11-15T16:34:24;12.50;99.90
3866;DHT22;1948;53.250;10.412;2022-11-15T16:36:59;12.40;99.90
3866;DHT22;1948;53.250;10.412;2022-11-15T16:39:26;12.40;99.90
3866;DHT22;1948;53.250;10.412;2022-11-15T16:41:57;12.40;99.90
3866;DHT22;1948;53.250;10.412;2022-11-15T16:44:30;12.30;99.90
3866;DHT22;1948;53.250;10.412;2022-11-15T16:46:57;12.20;99.90
3866;DHT22;1948;53.250;10.412;2022-11-15T16:49:23;12.20;99.90
3866;DHT22;1948;53.250;10.412;2022-11-15T16:51:58;12.20;99.90
3866;DHT22;1948;53.250;10.412;2022-11-15T16:54:27;12.20;99.90
3866;DHT22;1948;53.250;10.412;2022-11-15T16:56:58;12.20;99.90
3866;DHT22;1948;53.250;10.412;2022-11-15T16:59:27;12.10;99.90
3866;DHT22;1948;53.250;10.412;2022-11-15T17:02:02;12.20;99.90
3866;DHT22;1948;53.250;10.412;2022-11-15T17:04:29;12.20;99.90
3866;DHT22;1948;53.250;10.412;2022-11-15T17:06:59;12.20;99.90
3866;DHT22;1948;53.250;10.412;2022-11-15T17:09:26;12.20;99.90
3866;DHT22;1948;53.250;10.412;2022-11-15T17:11:55;12.20;99.90
3866;DHT22;1948;53.250;10.412;2022-11-15T17:14:24;12.20;99.90
3866;DHT22;1948;53.250;10.412;2022-11-15T17:16:51;12.20;99.90
3866;DHT22;1948;53.250;10.412;2022-11-15T17:19:23;12.30;99.90
3866;DHT22;1948;53.250;10.412;2022-11-15T17:21:50;12.30;99.90
3866;DHT22;1948;53.250;10.412;2022-11-15T17:24:17;12.30;99.90
3866;DHT22;1948;53.250;10.412;2022-11-15T17:26:46;12.30;99.90
3866;DHT22;1948;53.250;10.412;2022-11-15T17:29:16;12.40;99.90
3866;DHT22;1948;53.250;10.412;2022-11-15T17:31:44;12.30;99.90
3866;DHT22;1948;53.250;10.412;2022-11-15T17:34:11;12.30;99.90
3866;DHT22;1948;53.250;10.412;2022-11-15T17:36:37;12.40;99.90
3866;DHT22;1948;53.250;10.412;2022-11-15T17:39:04;12.40;99.90
3866;DHT22;1948;53.250;10.412;2022-11-15T17:41:31;12.40;99.90
3866;DHT22;1948;53.250;10.412;2022-11-15T17:44:03;12.30;99.90
3866;DHT22;1948;53.250;10.412;2022-11-15T17:46:30;12.40;99.90
3866;DHT22;1948;53.250;10.412;2022-11-15T17:49:02;12.40;99.90
3866;DHT22;1948;53.250;10.412;2022-11-15T17:51:31;12.40;99.90
3866;DHT22;1948;53.250;10.412;2022-11-15T17:53:58;12.40;99.90
3866;DHT22;1948;53.250;10.412;2022-11-15T17:56:27;12.40;99.90
3866;DHT22;1948;53.250;10.412;2022-11-15T17:58:57;12.40;99.90
3866;DHT22;1948;53.250;10.412;2022-11-15T18:01:32;12.30;99.90
3866;DHT22;1948;53.250;10.412;2022-11-15T18:04:06;12.30;99.90
3866;DHT22;1948;53.250;10.412;2022-11-15T18:06:35;12.30;99.90
3866;DHT22;1948;53.250;10.412;2022-11-15T18:09:03;12.30;99.90
3866;DHT22;1948;53.250;10.412;2022-11-15T18:11:41;12.40;99.90
3866;DHT22;1948;53.250;10.412;2022-11-15T18:14:14;12.40;99.90
3866;DHT22;1948;53.250;10.412;2022-11-15T18:16:43;12.30;99.90
3866;DHT22;1948;53.250;10.412;2022-11-15T18:19:13;12.30;99.90
3866;DHT22;1948;53.250;10.412;2022-11-15T18:21:44;12.30;99.90
3866;DHT22;1948;53.250;10.412;2022-11-15T18:24:32;12.40;99.90
3866;DHT22;1948;53.250;10.412;2022-11-15T18:27:04;12.40;99.90
3866;DHT22;1948;53.250;10.412;2022-11-15T18:29:34;12.40;99.90
3866;DHT22;1948;53.250;10.412;2022-11-15T18:32:05;12.40;99.90
3866;DHT22;1948;53.250;10.412;2022-11-15T18:34:38;12.40;99.90
3866;DHT22;1948;53.250;10.412;2022-11-15T18:37:09;12.40;99.90
3866;DHT22;1948;53.250;10.412;2022-11-15T18:39:39;12.40;99.90
3866;DHT22;1948;53.250;10.412;2022-11-15T18:42:10;12.40;99.90
3866;DHT22;1948;53.250;10.412;2022-11-15T18:44:37;12.40;99.90
3866;DHT22;1948;53.250;10.412;2022-11-15T18:47:04;12.40;99.90
3866;DHT22;1948;53.250;10.412;2022-11-15T18:49:33;12.40;99.90
3866;DHT22;1948;53.250;10.412;2022-11-15T18:52:00;12.30;99.90
3866;DHT22;1948;53.250;10.412;2022-11-15T18:54:27;12.40;99.90
3866;DHT22;1948;53.250;10.412;2022-11-15T18:56:57;12.30;99.90
3866;DHT22;1948;53.250;10.412;2022-11-15T18:59:24;12.30;99.90